Terminal Aerodrome Forecast
Issued by NWS

Current Version | Previous Version | Text Only | Print | Product List | Glossary Off
Versions: 1 2 3 4 5 6 7 8 9 10 11 12 13 14 15 16 17 18 19 20 21 22 23 24

000
FTUS41 KILN 252200 AAA
TAFLCK
TAF AMD
KLCK 252208Z 2522/2618 08008G18KT P6SM -SHRA SCT025 OVC040
      TEMPO 2522/2523 4SM RA BR
     FM260000 06013KT P6SM VCSH SCT025 OVC040
     FM260300 04013KT P6SM BKN040
     FM261300 01013KT P6SM FEW040=

USA.gov is the U.S. government's official web portal to all federal, state and local government web resources and services.